createdAt,value
2018-10-03T00:00:35.792Z,1012.53
2018-10-03T00:01:44.707Z,1012.57
2018-10-03T00:02:53.338Z,1012.58
2018-10-03T00:04:01.988Z,1012.59
2018-10-03T00:05:10.625Z,1012.6
2018-10-03T00:06:19.272Z,1012.59
2018-10-03T00:07:27.900Z,1012.65
2018-10-03T00:08:36.818Z,1012.65
2018-10-03T00:09:45.453Z,1012.61
2018-10-03T00:10:54.094Z,1012.62
2018-10-03T00:12:02.725Z,1012.61
2018-10-03T00:13:11.372Z,1012.61
2018-10-03T00:14:20.020Z,1012.64
2018-10-03T00:15:28.662Z,1012.67
2018-10-03T00:16:37.304Z,1012.67
2018-10-03T00:17:45.935Z,1012.67
2018-10-03T00:18:54.581Z,1012.68
2018-10-03T00:20:03.219Z,1012.64
2018-10-03T00:21:11.866Z,1012.69
2018-10-03T00:22:20.498Z,1012.68
2018-10-03T00:23:29.210Z,1012.67
2018-10-03T00:24:37.781Z,1012.71
2018-10-03T00:25:46.692Z,1012.77
2018-10-03T00:26:55.321Z,1012.73
2018-10-03T00:28:03.965Z,1012.74
2018-10-03T00:29:12.873Z,1012.69
2018-10-03T00:30:21.522Z,1012.75
2018-10-03T00:31:30.159Z,1012.72
2018-10-03T00:32:38.794Z,1012.73
2018-10-03T00:33:47.429Z,1012.68
2018-10-03T00:34:56.068Z,1012.66
2018-10-03T00:36:04.718Z,1012.6
2018-10-03T00:37:13.626Z,1012.61
2018-10-03T00:38:22.259Z,1012.63
2018-10-03T00:39:31.174Z,1012.59
2018-10-03T00:40:39.806Z,1012.61
2018-10-03T00:41:48.453Z,1012.58
2018-10-03T00:42:57.350Z,1012.62
2018-10-03T00:44:05.996Z,1012.65
2018-10-03T00:45:14.625Z,1012.68
2018-10-03T00:46:23.267Z,1012.68
2018-10-03T00:47:31.905Z,1012.67
2018-10-03T00:48:40.553Z,1012.7
2018-10-03T00:49:49.192Z,1012.67
2018-10-03T00:50:57.822Z,1012.69
2018-10-03T00:52:06.729Z,1012.64
2018-10-03T00:53:15.364Z,1012.66
2018-10-03T00:54:24.011Z,1012.68
2018-10-03T00:55:32.919Z,1012.67
2018-10-03T00:56:41.563Z,1012.68
2018-10-03T00:57:50.193Z,1012.68
2018-10-03T00:58:58.849Z,1012.69
2018-10-03T01:00:07.750Z,1012.66
2018-10-03T01:01:16.396Z,1012.7
2018-10-03T01:02:25.027Z,1012.74
2018-10-03T01:03:33.943Z,1012.66
2018-10-03T01:04:42.583Z,1012.74
2018-10-03T01:05:51.232Z,1012.76
2018-10-03T01:07:00.116Z,1012.75
2018-10-03T01:08:09.027Z,1012.75
2018-10-03T01:09:17.671Z,1012.84
2018-10-03T01:10:26.310Z,1012.83
2018-10-03T01:11:34.952Z,1012.82
2018-10-03T01:12:43.844Z,1012.81
2018-10-03T01:13:52.490Z,1012.8
2018-10-03T01:15:01.386Z,1012.89
2018-10-03T01:16:10.045Z,1012.9
2018-10-03T01:17:18.675Z,1012.9
2018-10-03T01:18:27.321Z,1012.93
2018-10-03T01:19:35.958Z,1012.95
2018-10-03T01:20:44.611Z,1012.95
2018-10-03T01:21:53.506Z,1012.93
2018-10-03T01:23:02.149Z,1012.9
2018-10-03T01:24:10.787Z,1012.91
2018-10-03T01:25:19.705Z,1012.94
2018-10-03T01:26:28.338Z,1012.95
2018-10-03T01:27:36.983Z,1012.93
2018-10-03T01:28:45.886Z,1012.95
2018-10-03T01:29:54.521Z,1012.98
2018-10-03T01:31:03.710Z,1012.95
2018-10-03T01:32:12.346Z,1012.95
2018-10-03T01:33:20.992Z,1013
2018-10-03T01:34:29.621Z,1013
2018-10-03T01:35:38.269Z,1013.06
2018-10-03T01:36:47.173Z,1013.03
2018-10-03T01:37:55.814Z,1013.04
2018-10-03T01:39:04.448Z,1013.01
2018-10-03T01:40:13.098Z,1013.05
2018-10-03T01:41:21.731Z,1013.1
2018-10-03T01:42:30.376Z,1013.1
2018-10-03T01:43:39.008Z,1013.06
2018-10-03T01:44:47.650Z,1013.1
2018-10-03T01:45:56.291Z,1013.13
2018-10-03T01:47:04.932Z,1013.09
2018-10-03T01:48:13.577Z,1013.05
2018-10-03T01:49:22.749Z,1013.07
2018-10-03T01:50:31.387Z,1013.08
2018-10-03T01:51:40.292Z,1013.08
2018-10-03T01:52:49.466Z,1013.08
2018-10-03T01:53:58.101Z,1013.11
2018-10-03T01:55:06.742Z,1013.1
2018-10-03T01:56:15.383Z,1013.13
2018-10-03T01:57:24.027Z,1013.15
2018-10-03T01:58:32.662Z,1013.16
2018-10-03T01:59:41.306Z,1013.2
2018-10-03T02:00:50.466Z,1013.17
2018-10-03T02:01:59.110Z,1013.21
2018-10-03T02:03:08.011Z,1013.18
2018-10-03T02:04:16.652Z,1013.23
2018-10-03T02:05:25.293Z,1013.24
2018-10-03T02:06:33.928Z,1013.2
2018-10-03T02:07:42.844Z,1013.22
2018-10-03T02:08:51.496Z,1013.23
2018-10-03T02:10:00.120Z,1013.23
2018-10-03T02:11:08.759Z,1013.19
2018-10-03T02:12:17.666Z,1013.24
2018-10-03T02:13:26.305Z,1013.23
2018-10-03T02:14:34.999Z,1013.24
2018-10-03T02:15:43.585Z,1013.21
2018-10-03T02:16:52.229Z,1013.2
2018-10-03T02:18:00.870Z,1013.19
2018-10-03T02:19:09.511Z,1013.18
2018-10-03T02:20:18.149Z,1013.2
2018-10-03T02:21:26.792Z,1013.19
2018-10-03T02:22:35.429Z,1013.19
2018-10-03T02:23:44.070Z,1013.24
2018-10-03T02:24:52.713Z,1013.24
2018-10-03T02:26:01.355Z,1013.28
2018-10-03T02:27:09.995Z,1013.26
2018-10-03T02:28:18.637Z,1013.3
2018-10-03T02:29:27.282Z,1013.32
2018-10-03T02:30:35.922Z,1013.31
2018-10-03T02:31:44.560Z,1013.29
2018-10-03T02:32:53.465Z,1013.3
2018-10-03T02:34:02.116Z,1013.33
2018-10-03T02:35:11.056Z,1013.4
2018-10-03T02:36:19.665Z,1013.41
2018-10-03T02:37:28.590Z,1013.38
2018-10-03T02:38:37.750Z,1013.4
2018-10-03T02:39:46.659Z,1013.39
2018-10-03T02:40:55.558Z,1013.37
2018-10-03T02:42:04.201Z,1013.36
2018-10-03T02:43:12.849Z,1013.39
2018-10-03T02:44:21.773Z,1013.4
2018-10-03T02:45:30.688Z,1013.42
2018-10-03T02:46:39.333Z,1013.38
2018-10-03T02:47:48.243Z,1013.35
2018-10-03T02:48:57.402Z,1013.35
2018-10-03T02:50:06.309Z,1013.39
2018-10-03T02:51:15.212Z,1013.45
2018-10-03T02:52:23.865Z,1013.42
2018-10-03T02:53:32.758Z,1013.42
2018-10-03T02:54:41.402Z,1013.4
2018-10-03T02:55:50.309Z,1013.37
2018-10-03T02:56:58.958Z,1013.39
2018-10-03T02:58:07.599Z,1013.42
2018-10-03T02:59:16.232Z,1013.43
2018-10-03T03:00:24.874Z,1013.41
2018-10-03T03:01:33.873Z,1013.43
2018-10-03T03:02:42.427Z,1013.5
2018-10-03T03:03:51.323Z,1013.5
2018-10-03T03:05:00.239Z,1013.48
2018-10-03T03:06:09.134Z,1013.51
2018-10-03T03:07:17.789Z,1013.48
2018-10-03T03:08:26.439Z,1013.52
2018-10-03T03:09:35.066Z,1013.56
2018-10-03T03:10:43.702Z,1013.57
2018-10-03T03:11:53.155Z,1013.59
2018-10-03T03:13:02.065Z,1013.6
2018-10-03T03:14:10.711Z,1013.6
2018-10-03T03:15:19.341Z,1013.64
2018-10-03T03:16:27.994Z,1013.6
2018-10-03T03:17:36.642Z,1013.57
2018-10-03T03:18:45.288Z,1013.57
2018-10-03T03:19:53.934Z,1013.59
2018-10-03T03:21:02.569Z,1013.6
2018-10-03T03:22:11.213Z,1013.59
2018-10-03T03:23:19.848Z,1013.62
2018-10-03T03:24:28.499Z,1013.6
2018-10-03T03:25:37.393Z,1013.56
2018-10-03T03:26:46.041Z,1013.58
2018-10-03T03:27:54.679Z,1013.58
2018-10-03T03:29:03.599Z,1013.58
2018-10-03T03:30:12.497Z,1013.6
2018-10-03T03:31:21.711Z,1013.62
2018-10-03T03:32:30.603Z,1013.65
2018-10-03T03:33:40.046Z,1013.68
2018-10-03T03:34:48.695Z,1013.65
2018-10-03T03:35:57.607Z,1013.64
2018-10-03T03:37:06.242Z,1013.66
2018-10-03T03:38:14.879Z,1013.67
2018-10-03T03:39:23.792Z,1013.64
2018-10-03T03:40:32.442Z,1013.66
2018-10-03T03:41:41.077Z,1013.7
2018-10-03T03:42:49.716Z,1013.67
2018-10-03T03:43:58.626Z,1013.64
2018-10-03T03:45:07.268Z,1013.65
2018-10-03T03:46:16.173Z,1013.7
2018-10-03T03:47:24.809Z,1013.7
2018-10-03T03:48:33.463Z,1013.7
2018-10-03T03:49:42.363Z,1013.67
2018-10-03T03:50:51.271Z,1013.68
2018-10-03T03:51:59.917Z,1013.69
2018-10-03T03:53:08.566Z,1013.71
2018-10-03T03:54:17.209Z,1013.69
2018-10-03T03:55:26.133Z,1013.75
2018-10-03T03:56:35.045Z,1013.75
2018-10-03T03:57:43.949Z,1013.8
2018-10-03T03:58:52.582Z,1013.76
2018-10-03T04:00:01.234Z,1013.78
2018-10-03T04:01:09.878Z,1013.85
2018-10-03T04:02:19.053Z,1013.87
2018-10-03T04:03:27.692Z,1013.83
2018-10-03T04:04:36.336Z,1013.86
2018-10-03T04:05:44.980Z,1013.88
2018-10-03T04:06:53.624Z,1013.93
2018-10-03T04:08:02.602Z,1013.95
2018-10-03T04:09:11.771Z,1013.96
2018-10-03T04:10:20.682Z,1013.95
2018-10-03T04:11:29.323Z,1014.03
2018-10-03T04:12:38.226Z,1014.06
2018-10-03T04:13:46.862Z,1014.05
2018-10-03T04:14:55.500Z,1014.08
2018-10-03T04:16:04.405Z,1014.09
2018-10-03T04:17:13.053Z,1014.16
2018-10-03T04:18:21.700Z,1014.12
2018-10-03T04:19:30.606Z,1014.15
2018-10-03T04:20:39.254Z,1014.17
2018-10-03T04:21:48.163Z,1014.17
2018-10-03T04:22:56.806Z,1014.25
2018-10-03T04:24:05.443Z,1014.22
2018-10-03T04:25:14.352Z,1014.21
2018-10-03T04:26:22.989Z,1014.2
2018-10-03T04:27:31.633Z,1014.17
2018-10-03T04:28:40.800Z,1014.16
2018-10-03T04:29:49.448Z,1014.12
2018-10-03T04:30:58.089Z,1014.19
2018-10-03T04:32:06.729Z,1014.17
2018-10-03T04:33:15.367Z,1014.17
2018-10-03T04:34:24.015Z,1014.2
2018-10-03T04:35:32.698Z,1014.2
2018-10-03T04:36:41.300Z,1014.24
2018-10-03T04:37:50.202Z,1014.21
2018-10-03T04:38:58.844Z,1014.27
2018-10-03T04:40:07.486Z,1014.29
2018-10-03T04:41:16.128Z,1014.27
2018-10-03T04:42:24.840Z,1014.28
2018-10-03T04:43:33.825Z,1014.23
2018-10-03T04:44:42.463Z,1014.31
2018-10-03T04:45:51.106Z,1014.31
2018-10-03T04:46:59.742Z,1014.31
2018-10-03T04:48:08.651Z,1014.33
2018-10-03T04:49:17.553Z,1014.35
2018-10-03T04:50:26.460Z,1014.36
2018-10-03T04:51:35.106Z,1014.35
2018-10-03T04:52:43.743Z,1014.37
2018-10-03T04:53:52.382Z,1014.37
2018-10-03T04:55:01.022Z,1014.38
2018-10-03T04:56:09.930Z,1014.34
2018-10-03T04:57:18.562Z,1014.33
2018-10-03T04:58:27.201Z,1014.34
2018-10-03T04:59:35.848Z,1014.37
2018-10-03T05:00:44.753Z,1014.33
2018-10-03T05:01:53.392Z,1014.34
2018-10-03T05:03:02.033Z,1014.3
2018-10-03T05:04:10.939Z,1014.35
2018-10-03T05:05:19.581Z,1014.32
2018-10-03T05:06:28.497Z,1014.36
2018-10-03T05:07:37.137Z,1014.35
2018-10-03T05:08:45.774Z,1014.41
2018-10-03T05:09:54.414Z,1014.48
2018-10-03T05:11:03.057Z,1014.48
2018-10-03T05:12:11.696Z,1014.52
2018-10-03T05:13:20.339Z,1014.56
2018-10-03T05:14:29.234Z,1014.62
2018-10-03T05:15:38.151Z,1014.65
2018-10-03T05:16:46.792Z,1014.68
2018-10-03T05:17:55.429Z,1014.66
2018-10-03T05:19:04.064Z,1014.65
2018-10-03T05:20:12.708Z,1014.67
2018-10-03T05:21:21.352Z,1014.66
2018-10-03T05:22:30.044Z,1014.67
2018-10-03T05:23:39.155Z,1014.62
2018-10-03T05:24:47.796Z,1014.69
2018-10-03T05:25:56.437Z,1014.73
2018-10-03T05:27:05.080Z,1014.75
2018-10-03T05:28:13.979Z,1014.81
2018-10-03T05:29:22.614Z,1014.84
2018-10-03T05:30:31.518Z,1014.8
2018-10-03T05:31:40.155Z,1014.84
2018-10-03T05:32:49.070Z,1014.77
2018-10-03T05:33:57.702Z,1014.83
2018-10-03T05:35:06.347Z,1014.84
2018-10-03T05:36:15.518Z,1014.85
2018-10-03T05:37:24.168Z,1014.83
2018-10-03T05:38:32.797Z,1014.82
2018-10-03T05:39:41.524Z,1014.88
2018-10-03T05:40:50.505Z,1014.93
2018-10-03T05:41:59.152Z,1014.98
2018-10-03T05:43:07.794Z,1014.95
2018-10-03T05:44:16.433Z,1014.98
2018-10-03T05:45:25.348Z,1015
2018-10-03T05:46:33.976Z,1015
2018-10-03T05:47:42.628Z,1014.97
2018-10-03T05:48:51.594Z,1014.97
2018-10-03T05:50:00.178Z,1014.98
2018-10-03T05:51:08.809Z,1015
2018-10-03T05:52:17.461Z,1014.98
2018-10-03T05:53:26.096Z,1015
2018-10-03T05:54:34.744Z,1015.05
2018-10-03T05:55:43.718Z,1015.06
2018-10-03T05:56:52.368Z,1015.06
2018-10-03T05:58:01.268Z,1015.12
2018-10-03T05:59:09.911Z,1015.17
2018-10-03T06:00:18.541Z,1015.16
2018-10-03T06:01:27.186Z,1015.19
2018-10-03T06:02:35.833Z,1015.21
2018-10-03T06:03:44.476Z,1015.22
2018-10-03T06:04:53.118Z,1015.27
2018-10-03T06:06:01.747Z,1015.31
2018-10-03T06:07:10.388Z,1015.27
2018-10-03T06:08:19.025Z,1015.33
2018-10-03T06:09:27.673Z,1015.39
2018-10-03T06:10:36.572Z,1015.44
2018-10-03T06:11:45.214Z,1015.45
2018-10-03T06:12:54.115Z,1015.51
2018-10-03T06:14:03.032Z,1015.52
2018-10-03T06:15:11.664Z,1015.49
2018-10-03T06:16:20.306Z,1015.53
2018-10-03T06:17:29.473Z,1015.59
2018-10-03T06:18:38.189Z,1015.57
2018-10-03T06:19:46.760Z,1015.59
2018-10-03T06:20:55.402Z,1015.61
2018-10-03T06:22:04.038Z,1015.64
2018-10-03T06:23:12.946Z,1015.67
2018-10-03T06:24:21.595Z,1015.73
2018-10-03T06:25:30.231Z,1015.76
2018-10-03T06:26:39.140Z,1015.79
2018-10-03T06:27:47.890Z,1015.81
2018-10-03T06:28:56.803Z,1015.84
2018-10-03T06:30:05.447Z,1015.89
2018-10-03T06:31:14.093Z,1015.93
2018-10-03T06:32:22.730Z,1015.95
2018-10-03T06:33:31.710Z,1016.01
2018-10-03T06:34:40.277Z,1016.01
2018-10-03T06:35:49.187Z,1016.05
2018-10-03T06:36:57.821Z,1016.1
2018-10-03T06:38:06.463Z,1016.15
2018-10-03T06:39:15.401Z,1016.17
2018-10-03T06:40:24.367Z,1016.16
2018-10-03T06:41:32.988Z,1016.18
2018-10-03T06:42:41.886Z,1016.2
2018-10-03T06:43:50.524Z,1016.21
2018-10-03T06:44:59.164Z,1016.25
2018-10-03T06:46:08.074Z,1016.29
2018-10-03T06:47:16.721Z,1016.27
2018-10-03T06:48:25.626Z,1016.26
2018-10-03T06:49:34.267Z,1016.36
2018-10-03T06:50:43.449Z,1016.39
2018-10-03T06:51:52.081Z,1016.39
2018-10-03T06:53:00.723Z,1016.44
2018-10-03T06:54:09.361Z,1016.4
2018-10-03T06:55:18.008Z,1016.45
2018-10-03T06:56:26.644Z,1016.44
2018-10-03T06:57:35.290Z,1016.46
2018-10-03T06:58:43.935Z,1016.43
2018-10-03T06:59:52.569Z,1016.5
2018-10-03T07:01:01.217Z,1016.52
2018-10-03T07:02:09.857Z,1016.52
2018-10-03T07:03:18.498Z,1016.6
2018-10-03T07:04:27.133Z,1016.66
2018-10-03T07:05:35.835Z,1016.72
2018-10-03T07:06:44.423Z,1016.68
2018-10-03T07:07:53.069Z,1016.71
2018-10-03T07:09:02.247Z,1016.72
2018-10-03T07:10:11.157Z,1016.75
2018-10-03T07:11:20.325Z,1016.77
2018-10-03T07:12:29.234Z,1016.82
2018-10-03T07:13:37.870Z,1016.88
2018-10-03T07:14:46.512Z,1016.87
2018-10-03T07:15:55.154Z,1016.89
2018-10-03T07:17:03.803Z,1016.84
2018-10-03T07:18:12.712Z,1016.92
2018-10-03T07:19:21.612Z,1016.97
2018-10-03T07:20:30.259Z,1016.93
2018-10-03T07:21:38.894Z,1016.91
2018-10-03T07:22:47.543Z,1016.92
2018-10-03T07:23:56.180Z,1016.93
2018-10-03T07:25:04.822Z,1016.98
2018-10-03T07:26:13.550Z,1016.97
2018-10-03T07:27:22.113Z,1016.98
2018-10-03T07:28:30.745Z,1017
2018-10-03T07:29:39.390Z,1016.98
2018-10-03T07:30:48.030Z,1017.06
2018-10-03T07:31:57.204Z,1017.12
2018-10-03T07:33:05.844Z,1017.1
2018-10-03T07:34:14.484Z,1017.09
2018-10-03T07:35:23.123Z,1017.14
2018-10-03T07:36:31.764Z,1017.17
2018-10-03T07:37:40.415Z,1017.18
2018-10-03T07:38:49.051Z,1017.23
2018-10-03T07:39:57.697Z,1017.24
2018-10-03T07:41:06.330Z,1017.2
2018-10-03T07:42:14.981Z,1017.25
2018-10-03T07:43:23.615Z,1017.3
2018-10-03T07:44:32.262Z,1017.28
2018-10-03T07:45:41.158Z,1017.3
2018-10-03T07:46:49.809Z,1017.3
2018-10-03T07:47:58.509Z,1017.36
2018-10-03T07:49:07.458Z,1017.34
2018-10-03T07:50:16.097Z,1017.34
2018-10-03T07:51:24.735Z,1017.35
2018-10-03T07:52:33.382Z,1017.4
2018-10-03T07:53:42.350Z,1017.36
2018-10-03T07:54:51.326Z,1017.36
2018-10-03T07:55:59.957Z,1017.37
2018-10-03T07:57:08.916Z,1017.44
2018-10-03T07:58:17.544Z,1017.44
2018-10-03T07:59:26.199Z,1017.42
2018-10-03T08:00:35.093Z,1017.41
2018-10-03T08:01:44.000Z,1017.51
2018-10-03T08:02:52.639Z,1017.44
2018-10-03T08:04:01.302Z,1017.47
2018-10-03T08:05:10.193Z,1017.5
2018-10-03T08:06:18.840Z,1017.56
2018-10-03T08:07:27.747Z,1017.6
2018-10-03T08:08:36.402Z,1017.6
2018-10-03T08:09:45.353Z,1017.59
2018-10-03T08:10:53.941Z,1017.61
2018-10-03T08:12:02.845Z,1017.57
2018-10-03T08:13:11.486Z,1017.62
2018-10-03T08:14:20.141Z,1017.65
2018-10-03T08:15:28.776Z,1017.65
2018-10-03T08:16:37.946Z,1017.69
2018-10-03T08:17:47.106Z,1017.63
2018-10-03T08:18:55.757Z,1017.68
2018-10-03T08:20:04.395Z,1017.74
2018-10-03T08:21:13.037Z,1017.77
2018-10-03T08:22:21.670Z,1017.68
2018-10-03T08:23:30.321Z,1017.74
2018-10-03T08:24:39.056Z,1017.75
2018-10-03T08:25:47.599Z,1017.76
2018-10-03T08:26:56.255Z,1017.72
2018-10-03T08:28:05.153Z,1017.77
2018-10-03T08:29:13.791Z,1017.8
2018-10-03T08:30:22.427Z,1017.84
2018-10-03T08:31:31.065Z,1017.94
2018-10-03T08:32:40.108Z,1017.93
2018-10-03T08:33:48.621Z,1017.88
2018-10-03T08:34:57.535Z,1017.91
2018-10-03T08:36:06.434Z,1017.92
2018-10-03T08:37:15.084Z,1017.89
2018-10-03T08:38:23.726Z,1017.96
2018-10-03T08:39:32.648Z,1017.98
2018-10-03T08:40:41.279Z,1018.03
2018-10-03T08:41:49.935Z,1018
2018-10-03T08:42:58.569Z,1017.98
2018-10-03T08:44:07.214Z,1018.08
2018-10-03T08:45:15.852Z,1018.08
2018-10-03T08:46:25.074Z,1018.06
2018-10-03T08:47:33.722Z,1018.11
2018-10-03T08:48:42.366Z,1018.06
2018-10-03T08:49:51.536Z,1018.08
2018-10-03T08:51:00.168Z,1018.06
2018-10-03T08:52:08.815Z,1018.13
2018-10-03T08:53:17.451Z,1018.16
2018-10-03T08:54:26.104Z,1018.2
2018-10-03T08:55:34.736Z,1018.22
2018-10-03T08:56:43.383Z,1018.25
2018-10-03T08:57:52.022Z,1018.2
2018-10-03T08:59:01.029Z,1018.18
2018-10-03T09:00:09.661Z,1018.13
2018-10-03T09:01:18.837Z,1018.13
2018-10-03T09:02:27.480Z,1018.15
2018-10-03T09:03:36.136Z,1018.22
2018-10-03T09:04:45.038Z,1018.23
2018-10-03T09:05:53.676Z,1018.24
2018-10-03T09:07:02.322Z,1018.28
2018-10-03T09:08:11.221Z,1018.35
2018-10-03T09:09:19.877Z,1018.35
2018-10-03T09:10:28.515Z,1018.38
2018-10-03T09:11:37.235Z,1018.34
2018-10-03T09:12:45.800Z,1018.38
2018-10-03T09:13:54.449Z,1018.46
2018-10-03T09:15:03.351Z,1018.46
2018-10-03T09:16:12.268Z,1018.49
2018-10-03T09:17:20.901Z,1018.54
2018-10-03T09:18:29.554Z,1018.53
2018-10-03T09:19:38.454Z,1018.55
2018-10-03T09:20:47.102Z,1018.56
2018-10-03T09:21:56.051Z,1018.62
2018-10-03T09:23:04.646Z,1018.61
2018-10-03T09:24:13.300Z,1018.67
2018-10-03T09:25:22.211Z,1018.64
2018-10-03T09:26:30.859Z,1018.67
2018-10-03T09:27:39.496Z,1018.61
2018-10-03T09:28:48.140Z,1018.69
2018-10-03T09:29:56.785Z,1018.65
2018-10-03T09:31:05.433Z,1018.67
2018-10-03T09:32:14.068Z,1018.66
2018-10-03T09:33:22.711Z,1018.72
2018-10-03T09:34:31.356Z,1018.75
2018-10-03T09:35:40.005Z,1018.79
2018-10-03T09:36:48.643Z,1018.78
2018-10-03T09:37:57.289Z,1018.82
2018-10-03T09:39:05.930Z,1018.85
2018-10-03T09:40:14.577Z,1018.86
2018-10-03T09:41:23.222Z,1018.84
2018-10-03T09:42:32.128Z,1018.74
2018-10-03T09:43:40.780Z,1018.87
2018-10-03T09:44:49.806Z,1018.87
2018-10-03T09:45:58.455Z,1018.87
2018-10-03T09:47:07.098Z,1018.87
2018-10-03T09:48:15.739Z,1018.83
2018-10-03T09:49:24.377Z,1018.86
2018-10-03T09:50:33.026Z,1018.88
2018-10-03T09:51:41.669Z,1018.86
2018-10-03T09:52:50.361Z,1018.89
2018-10-03T09:53:59.216Z,1018.91
2018-10-03T09:55:07.873Z,1018.92
2018-10-03T09:56:16.515Z,1018.91
2018-10-03T09:57:25.688Z,1018.91
2018-10-03T09:58:34.331Z,1018.92
2018-10-03T09:59:42.977Z,1018.92
2018-10-03T10:00:51.688Z,1018.97
2018-10-03T10:02:00.269Z,1019.02
2018-10-03T10:03:08.913Z,1019
2018-10-03T10:04:17.554Z,1018.99
2018-10-03T10:05:26.197Z,1019.08
2018-10-03T10:06:34.843Z,1019.08
2018-10-03T10:07:43.489Z,1019.08
2018-10-03T10:08:52.131Z,1019
2018-10-03T10:10:00.770Z,1019.03
2018-10-03T10:11:09.439Z,1019.05
2018-10-03T10:12:18.365Z,1019.02
2018-10-03T10:13:27.005Z,1019.04
2018-10-03T10:14:35.651Z,1019.06
2018-10-03T10:15:44.294Z,1019.06
2018-10-03T10:16:52.942Z,1019.1
2018-10-03T10:18:01.585Z,1019.1
2018-10-03T10:19:10.228Z,1019.13
2018-10-03T10:20:18.867Z,1019.17
2018-10-03T10:21:27.508Z,1019.19
2018-10-03T10:22:36.157Z,1019.22
2018-10-03T10:23:44.802Z,1019.28
2018-10-03T10:24:53.444Z,1019.21
2018-10-03T10:26:02.097Z,1019.25
2018-10-03T10:27:10.752Z,1019.29
2018-10-03T10:28:19.654Z,1019.3
2018-10-03T10:29:28.564Z,1019.35
2018-10-03T10:30:37.208Z,1019.31
2018-10-03T10:31:46.143Z,1019.3
2018-10-03T10:32:54.909Z,1019.27
2018-10-03T10:34:03.405Z,1019.27
2018-10-03T10:35:12.039Z,1019.28
2018-10-03T10:36:20.685Z,1019.29
2018-10-03T10:37:29.332Z,1019.27
2018-10-03T10:38:37.979Z,1019.28
2018-10-03T10:39:46.629Z,1019.33
2018-10-03T10:40:55.544Z,1019.3
2018-10-03T10:42:04.181Z,1019.38
2018-10-03T10:43:12.871Z,1019.35
2018-10-03T10:44:21.888Z,1019.33
2018-10-03T10:45:30.531Z,1019.29
2018-10-03T10:46:39.194Z,1019.3
2018-10-03T10:47:48.577Z,1019.33
2018-10-03T10:48:57.242Z,1019.25
2018-10-03T10:50:05.892Z,1019.3
2018-10-03T10:51:14.524Z,1019.32
2018-10-03T10:52:23.167Z,1019.36
2018-10-03T10:53:31.815Z,1019.37
2018-10-03T10:54:40.457Z,1019.37
2018-10-03T10:55:49.367Z,1019.38
2018-10-03T10:56:58.007Z,1019.4
2018-10-03T10:58:06.648Z,1019.39
2018-10-03T10:59:15.298Z,1019.39
2018-10-03T11:00:23.944Z,1019.37
2018-10-03T11:01:32.588Z,1019.42
2018-10-03T11:02:41.225Z,1019.47
2018-10-03T11:03:49.874Z,1019.47
2018-10-03T11:04:58.517Z,1019.42
2018-10-03T11:06:07.484Z,1019.46
2018-10-03T11:07:16.069Z,1019.47
2018-10-03T11:08:24.980Z,1019.52
2018-10-03T11:09:33.623Z,1019.48
2018-10-03T11:10:42.268Z,1019.47
2018-10-03T11:11:50.915Z,1019.51
2018-10-03T11:12:59.560Z,1019.46
2018-10-03T11:14:08.207Z,1019.53
2018-10-03T11:15:16.852Z,1019.51
2018-10-03T11:16:25.502Z,1019.56
2018-10-03T11:17:34.144Z,1019.55
2018-10-03T11:18:42.788Z,1019.52
2018-10-03T11:19:51.431Z,1019.6
2018-10-03T11:21:00.078Z,1019.62
2018-10-03T11:22:08.717Z,1019.67
2018-10-03T11:23:17.368Z,1019.66
2018-10-03T11:24:26.181Z,1019.65
2018-10-03T11:25:35.257Z,1019.67
2018-10-03T11:26:43.891Z,1019.7
2018-10-03T11:27:52.541Z,1019.65
2018-10-03T11:29:01.182Z,1019.74
2018-10-03T11:30:09.835Z,1019.76
2018-10-03T11:31:18.740Z,1019.8
2018-10-03T11:32:27.640Z,1019.77
2018-10-03T11:33:36.281Z,1019.74
2018-10-03T11:34:44.918Z,1019.75
2018-10-03T11:35:53.573Z,1019.68
2018-10-03T11:37:02.216Z,1019.72
2018-10-03T11:38:10.895Z,1019.72
2018-10-03T11:39:19.500Z,1019.71
2018-10-03T11:40:28.156Z,1019.72
2018-10-03T11:41:36.795Z,1019.68
2018-10-03T11:42:45.719Z,1019.71
2018-10-03T11:43:54.632Z,1019.66
2018-10-03T11:45:03.932Z,1019.69
2018-10-03T11:46:12.574Z,1019.65
2018-10-03T11:47:21.225Z,1019.58
2018-10-03T11:48:29.861Z,1019.66
2018-10-03T11:49:38.770Z,1019.57
2018-10-03T11:50:47.495Z,1019.54
2018-10-03T11:51:56.063Z,1019.6
2018-10-03T11:53:04.715Z,1019.53
2018-10-03T11:54:13.609Z,1019.54
2018-10-03T11:55:22.258Z,1019.55
2018-10-03T11:56:30.898Z,1019.58
2018-10-03T11:57:39.552Z,1019.57
2018-10-03T11:58:48.185Z,1019.54
2018-10-03T11:59:56.835Z,1019.58
2018-10-03T12:01:05.734Z,1019.56
2018-10-03T12:02:14.393Z,1019.54
2018-10-03T12:03:23.136Z,1019.56
2018-10-03T12:04:31.676Z,1019.57
2018-10-03T12:05:40.316Z,1019.56
2018-10-03T12:06:48.970Z,1019.65
2018-10-03T12:07:57.613Z,1019.58
2018-10-03T12:09:06.570Z,1019.59
2018-10-03T12:10:15.166Z,1019.59
2018-10-03T12:11:24.078Z,1019.58
2018-10-03T12:12:32.738Z,1019.6
2018-10-03T12:13:41.937Z,1019.52
2018-10-03T12:14:50.969Z,1019.55
2018-10-03T12:15:59.604Z,1019.58
2018-10-03T12:17:08.260Z,1019.6
2018-10-03T12:18:16.897Z,1019.63
2018-10-03T12:19:25.544Z,1019.64
2018-10-03T12:20:34.459Z,1019.64
2018-10-03T12:21:43.616Z,1019.63
2018-10-03T12:22:52.263Z,1019.66
2018-10-03T12:24:00.904Z,1019.64
2018-10-03T12:25:09.584Z,1019.64
2018-10-03T12:26:18.665Z,1019.71
2018-10-03T12:27:27.572Z,1019.72
2018-10-03T12:28:36.212Z,1019.73
2018-10-03T12:29:44.856Z,1019.71
2018-10-03T12:30:53.511Z,1019.71
2018-10-03T12:32:02.151Z,1019.67
2018-10-03T12:33:10.858Z,1019.63
2018-10-03T12:34:19.439Z,1019.64
2018-10-03T12:35:28.094Z,1019.63
2018-10-03T12:36:36.997Z,1019.64
2018-10-03T12:37:45.650Z,1019.65
2018-10-03T12:38:54.288Z,1019.73
2018-10-03T12:40:02.943Z,1019.76
2018-10-03T12:41:11.587Z,1019.75
2018-10-03T12:42:20.493Z,1019.68
2018-10-03T12:43:29.392Z,1019.69
2018-10-03T12:44:38.307Z,1019.74
2018-10-03T12:45:46.954Z,1019.76
2018-10-03T12:46:55.601Z,1019.73
2018-10-03T12:48:04.250Z,1019.7
2018-10-03T12:49:12.881Z,1019.77
2018-10-03T12:50:21.531Z,1019.71
2018-10-03T12:51:30.541Z,1019.66
2018-10-03T12:52:39.196Z,1019.72
2018-10-03T12:53:47.832Z,1019.7
2018-10-03T12:54:56.485Z,1019.68
2018-10-03T12:56:05.673Z,1019.69
2018-10-03T12:57:14.327Z,1019.76
2018-10-03T12:58:23.222Z,1019.77
2018-10-03T12:59:31.869Z,1019.7
2018-10-03T13:00:40.512Z,1019.71
2018-10-03T13:01:49.169Z,1019.74
2018-10-03T13:02:58.073Z,1019.72
2018-10-03T13:04:06.976Z,1019.73
2018-10-03T13:05:15.879Z,1019.73
2018-10-03T13:06:24.520Z,1019.74
2018-10-03T13:07:33.446Z,1019.75
2018-10-03T13:08:42.355Z,1019.75
2018-10-03T13:09:51.267Z,1019.75
2018-10-03T13:10:59.894Z,1019.77
2018-10-03T13:12:08.812Z,1019.75
2018-10-03T13:13:17.452Z,1019.75
2018-10-03T13:14:26.103Z,1019.76
2018-10-03T13:15:35.533Z,1019.72
2018-10-03T13:16:44.188Z,1019.73
2018-10-03T13:17:52.829Z,1019.71
2018-10-03T13:19:01.473Z,1019.73
2018-10-03T13:20:10.372Z,1019.71
2018-10-03T13:21:19.022Z,1019.7
2018-10-03T13:22:27.668Z,1019.69
2018-10-03T13:23:36.578Z,1019.74
2018-10-03T13:24:45.223Z,1019.73
2018-10-03T13:25:53.863Z,1019.74
2018-10-03T13:27:02.507Z,1019.77
2018-10-03T13:28:11.153Z,1019.75
2018-10-03T13:29:19.802Z,1019.78
2018-10-03T13:30:28.457Z,1019.76
2018-10-03T13:31:37.087Z,1019.74
2018-10-03T13:32:45.730Z,1019.81
2018-10-03T13:33:54.381Z,1019.79
2018-10-03T13:35:03.293Z,1019.81
2018-10-03T13:36:12.203Z,1019.79
2018-10-03T13:37:20.844Z,1019.76
2018-10-03T13:38:29.757Z,1019.76
2018-10-03T13:39:38.399Z,1019.72
2018-10-03T13:40:47.115Z,1019.76
2018-10-03T13:41:55.687Z,1019.74
2018-10-03T13:43:04.331Z,1019.76
2018-10-03T13:44:12.984Z,1019.74
2018-10-03T13:45:21.635Z,1019.69
2018-10-03T13:46:30.541Z,1019.76
2018-10-03T13:47:39.180Z,1019.79
2018-10-03T13:48:48.105Z,1019.73
2018-10-03T13:49:56.750Z,1019.76
2018-10-03T13:51:05.397Z,1019.75
2018-10-03T13:52:14.037Z,1019.77
2018-10-03T13:53:22.689Z,1019.73
2018-10-03T13:54:31.330Z,1019.75